Time;durP1;ratioP1;P1;durP2;ratioP2;P2;SDS_P1;SDS_P2;PMS_P1;PMS_P2;Temp;Humidity;BMP_temperature;BMP_pressure;BME280_temperature;BME280_humidity;BME280_pressure;Samples;Min_cycle;Max_cycle;Signal;HPM_P1;HPM_P2
2022/07/16 00:01:25;;;;;;;0.80;0.60;;;;;;;26.84;41.33;101840.06;5030243;28;20032;-70
2022/07/16 00:03:52;;;;;;;0.75;0.50;;;;;;;26.81;41.45;101831.31;5028753;28;20134;-70
2022/07/16 00:06:18;;;;;;;0.70;0.50;;;;;;;26.81;41.46;101833.97;5029956;28;20031;-70
2022/07/16 00:08:44;;;;;;;1.13;0.60;;;;;;;26.80;41.52;101826.88;5029980;28;20164;-70
2022/07/16 00:11:09;;;;;;;0.57;0.50;;;;;;;26.81;41.33;101825.94;5029362;28;20028;-70
2022/07/16 00:13:35;;;;;;;0.75;0.60;;;;;;;26.80;41.38;101834.91;5028569;28;20056;-70
2022/07/16 00:16:00;;;;;;;0.50;0.50;;;;;;;26.82;41.36;101825.03;5029593;28;20030;-69
2022/07/16 00:21:09;;;;;;;0.60;0.57;;;;;;;26.79;41.57;101830.47;5029526;28;20131;-69
2022/07/16 00:23:35;;;;;;;0.68;0.60;;;;;;;26.81;41.36;101828.63;5029336;28;20112;-70
2022/07/16 00:26:00;;;;;;;0.57;0.57;;;;;;;26.83;41.33;101829.44;5029674;28;20484;-70
2022/07/16 00:28:25;;;;;;;0.75;0.60;;;;;;;26.83;41.36;101829.44;5027888;28;20033;-70
2022/07/16 00:30:51;;;;;;;1.17;0.60;;;;;;;26.82;41.44;101833.06;5029434;28;20021;-70
2022/07/16 00:33:16;;;;;;;0.77;0.60;;;;;;;26.80;41.70;101829.56;5028910;28;20039;-70
2022/07/16 00:35:41;;;;;;;0.70;0.60;;;;;;;26.79;41.50;101830.47;5028269;28;20071;-69
2022/07/16 00:38:07;;;;;;;0.60;0.50;;;;;;;26.79;41.44;101827.81;5029208;28;20040;-70
2022/07/16 00:40:34;;;;;;;0.80;0.50;;;;;;;26.79;41.30;101826.00;5029127;28;20079;-70
2022/07/16 00:42:59;;;;;;;1.00;0.60;;;;;;;26.79;41.38;101830.47;5029460;28;20083;-70
2022/07/16 00:45:25;;;;;;;0.60;0.60;;;;;;;26.79;41.47;101827.81;5028670;28;20033;-70
2022/07/16 00:47:50;;;;;;;0.70;0.60;;;;;;;26.76;41.41;101831.50;5027782;28;20021;-70
2022/07/16 00:50:16;;;;;;;0.98;0.60;;;;;;;26.75;41.42;101827.06;5028299;28;20456;-70
2022/07/16 00:52:41;;;;;;;0.60;0.50;;;;;;;26.77;41.58;101827.00;5029000;28;20154;-70
2022/07/16 00:55:07;;;;;;;0.77;0.60;;;;;;;26.77;41.59;101824.34;5029254;28;20029;-70
2022/07/16 00:57:33;;;;;;;0.60;0.50;;;;;;;26.75;41.55;101828.88;5029136;28;20094;-70
2022/07/16 00:59:58;;;;;;;0.60;0.50;;;;;;;26.72;41.62;101816.47;5027487;28;20503;-70
2022/07/16 01:02:23;;;;;;;0.73;0.47;;;;;;;26.73;41.75;101817.34;5028762;28;20159;-70
2022/07/16 01:04:49;;;;;;;1.08;0.60;;;;;;;26.72;41.61;101821.81;5029023;28;20033;-70
2022/07/16 01:07:16;;;;;;;0.73;0.60;;;;;;;26.75;41.47;101816.38;5029195;28;20465;-70
2022/07/16 01:09:42;;;;;;;0.50;0.50;;;;;;;26.72;41.65;101819.13;5028735;28;20452;-70
2022/07/16 01:12:08;;;;;;;0.60;0.50;;;;;;;26.71;41.63;101811.19;5028549;28;20037;-70
2022/07/16 01:14:33;;;;;;;0.50;0.50;;;;;;;26.72;41.41;101813.78;5027519;28;20037;-70
2022/07/16 01:16:58;;;;;;;0.68;0.50;;;;;;;26.72;41.60;101816.47;5028520;28;20041;-70
2022/07/16 01:19:24;;;;;;;0.65;0.50;;;;;;;26.72;41.21;101815.59;5027328;28;20044;-69
2022/07/16 01:21:49;;;;;;;0.60;0.60;;;;;;;26.72;41.40;101812.91;5028122;28;20488;-70
2022/07/16 01:24:15;;;;;;;0.60;0.50;;;;;;;26.71;41.47;101820.09;5026998;28;20038;-69
2022/07/16 01:26:41;;;;;;;1.40;0.60;;;;;;;26.72;41.50;101823.63;5028637;28;20049;-70
2022/07/16 01:29:06;;;;;;;0.68;0.50;;;;;;;26.71;41.62;101830.81;5027275;28;20044;-70
2022/07/16 01:31:31;;;;;;;0.80;0.57;;;;;;;26.68;41.99;101841.59;5025924;28;20672;-69
2022/07/16 01:36:41;;;;;;;0.80;0.60;;;;;;;26.70;41.71;101844.22;5027757;28;20076;-70
2022/07/16 01:39:06;;;;;;;0.65;0.50;;;;;;;26.69;41.61;101842.47;5028227;28;20116;-70
2022/07/16 01:41:32;;;;;;;0.68;0.60;;;;;;;26.66;41.59;101832.75;5027182;28;20043;-70
2022/07/16 01:43:57;;;;;;;0.88;0.60;;;;;;;26.70;41.65;101844.22;5028352;28;20049;-70
2022/07/16 01:46:23;;;;;;;0.55;0.50;;;;;;;26.66;41.73;101841.66;5026548;28;20033;-70
2022/07/16 01:48:48;;;;;;;0.70;0.60;;;;;;;26.67;41.81;101845.19;5028227;28;20060;-70
2022/07/16 01:51:14;;;;;;;0.50;0.50;;;;;;;26.66;41.71;101838.97;5026835;28;20539;-70
2022/07/16 01:53:39;;;;;;;1.83;0.63;;;;;;;26.66;41.82;101846.13;5027327;28;20131;-70
2022/07/16 01:56:05;;;;;;;0.60;0.57;;;;;;;26.67;41.74;101847.88;5027394;28;20021;-70
2022/07/16 01:58:30;;;;;;;0.70;0.50;;;;;;;26.63;41.82;101846.25;5026744;28;20033;-70
2022/07/16 02:00:56;;;;;;;0.50;0.50;;;;;;;26.65;41.95;101847.94;5027413;28;20029;-70
2022/07/16 02:03:21;;;;;;;0.73;0.60;;;;;;;26.64;41.68;101848.88;5027158;28;20021;-70
2022/07/16 02:05:47;;;;;;;0.82;0.60;;;;;;;26.64;41.71;101861.38;5027961;28;20582;-70
2022/07/16 02:08:12;;;;;;;0.68;0.60;;;;;;;26.63;41.95;101854.28;5028146;28;20472;-70
2022/07/16 02:10:38;;;;;;;0.80;0.68;;;;;;;26.64;41.91;101861.38;5027743;28;20033;-70
2022/07/16 02:13:04;;;;;;;0.60;0.60;;;;;;;26.62;41.82;101855.22;5027576;28;20038;-70
2022/07/16 02:15:30;;;;;;;0.70;0.60;;;;;;;26.62;41.94;101861.44;5027257;28;20063;-70
2022/07/16 02:17:56;;;;;;;0.80;0.70;;;;;;;26.62;41.80;101861.44;5027189;28;20120;-70
2022/07/16 02:20:21;;;;;;;0.57;0.55;;;;;;;26.61;41.93;101858.81;5027276;28;20072;-69
2022/07/16 02:22:47;;;;;;;0.60;0.50;;;;;;;26.62;41.69;101853.41;5026971;28;20067;-70
2022/07/16 02:25:12;;;;;;;0.80;0.60;;;;;;;26.62;41.77;101860.56;5027004;28;20090;-70
2022/07/16 02:28:05;;;;;;;0.77;0.68;;;;;;;26.62;41.75;101864.09;5027213;28;20040;-70
2022/07/16 02:30:26;;;;;;;0.73;0.60;;;;;;;26.61;41.71;101864.16;5027523;28;20040;-70
2022/07/16 02:32:51;;;;;;;0.70;0.60;;;;;;;26.60;41.89;101875.78;5027401;28;20029;-70
2022/07/16 02:35:17;;;;;;;1.17;0.70;;;;;;;26.61;41.89;101867.72;5026669;28;20044;-70
2022/07/16 02:37:42;;;;;;;0.70;0.60;;;;;;;26.61;41.82;101872.19;5027207;28;20657;-70
2022/07/16 02:40:08;;;;;;;0.57;0.52;;;;;;;26.58;41.93;101872.31;5026521;28;20040;-70
2022/07/16 02:42:34;;;;;;;0.80;0.50;;;;;;;26.60;41.98;101876.66;5026884;28;20061;-70
2022/07/16 02:44:59;;;;;;;0.68;0.50;;;;;;;26.61;41.84;101870.38;5027307;28;20060;-70
2022/07/16 02:47:24;;;;;;;1.33;0.60;;;;;;;26.60;41.85;101868.63;5026312;28;20056;-70
2022/07/16 02:49:50;;;;;;;1.20;0.70;;;;;;;26.58;41.90;101867.84;5027117;28;20026;-70
2022/07/16 02:52:15;;;;;;;0.52;0.52;;;;;;;26.58;41.96;101875.00;5026289;28;20029;-70
2022/07/16 02:54:41;;;;;;;0.80;0.60;;;;;;;26.59;41.74;101879.41;5026438;28;20091;-70
2022/07/16 02:57:06;;;;;;;1.02;0.60;;;;;;;26.60;41.91;101881.13;5026830;28;20044;-70
2022/07/16 02:59:33;;;;;;;0.73;0.60;;;;;;;26.58;41.93;101880.34;5025872;28;20045;-70
2022/07/16 03:01:58;;;;;;;0.75;0.70;;;;;;;26.57;41.94;101884.81;5024730;28;20040;-70
2022/07/16 03:04:24;;;;;;;0.80;0.68;;;;;;;26.57;41.93;101883.94;5026234;28;20033;-70
2022/07/16 03:06:49;;;;;;;0.77;0.55;;;;;;;26.54;42.01;101886.72;5026466;28;20048;-70
2022/07/16 03:09:14;;;;;;;1.30;0.70;;;;;;;26.56;41.86;101891.09;5024452;28;20415;-70
2022/07/16 03:11:40;;;;;;;0.88;0.70;;;;;;;26.56;42.01;101896.44;5027269;28;20033;-70
2022/07/16 03:14:05;;;;;;;0.75;0.60;;;;;;;26.53;41.87;101898.38;5026325;28;20117;-70
2022/07/16 03:16:30;;;;;;;0.85;0.60;;;;;;;26.55;42.04;101900.03;5026546;28;20030;-70
2022/07/16 03:18:56;;;;;;;0.88;0.60;;;;;;;26.56;42.00;101900.91;5026512;28;20029;-70
2022/07/16 03:21:21;;;;;;;1.15;0.70;;;;;;;26.54;41.98;101894.72;5025829;28;20551;-70
2022/07/16 03:23:47;;;;;;;0.75;0.57;;;;;;;26.55;41.80;101897.34;5026103;28;20037;-70
2022/07/16 03:26:12;;;;;;;0.73;0.70;;;;;;;26.55;41.87;101893.81;5026548;28;20120;-70
2022/07/16 03:28:38;;;;;;;0.80;0.68;;;;;;;26.55;41.93;101900.03;5026467;28;20029;-70
2022/07/16 03:31:03;;;;;;;1.05;0.60;;;;;;;26.55;41.89;101893.81;5025939;28;20072;-71
2022/07/16 03:33:28;;;;;;;1.40;0.75;;;;;;;26.54;41.92;101902.75;5024589;28;20079;-70
2022/07/16 03:35:54;;;;;;;0.70;0.57;;;;;;;26.54;42.06;101902.75;5026059;28;20057;-70
2022/07/16 03:41:03;;;;;;;;;;;;;;;26.54;41.90;101914.31;5026632;28;20145;-70
2022/07/16 03:43:28;;;;;;;0.90;0.70;;;;;;;26.53;41.90;101914.41;5025642;28;20381;-70
2022/07/16 03:45:53;;;;;;;0.85;0.70;;;;;;;26.51;41.88;101918.94;5025790;28;20042;-70
2022/07/16 03:48:19;;;;;;;1.10;0.70;;;;;;;26.50;42.16;101927.88;5026165;28;20022;-70
2022/07/16 03:50:44;;;;;;;0.90;0.60;;;;;;;26.51;41.97;101930.50;5026468;28;20057;-70
2022/07/16 03:53:10;;;;;;;0.88;0.60;;;;;;;26.51;41.89;101917.13;5025429;28;20055;-70
2022/07/16 03:55:35;;;;;;;0.77;0.60;;;;;;;26.50;41.97;101923.41;5026033;28;20101;-70
2022/07/16 03:58:00;;;;;;;0.60;0.60;;;;;;;26.48;42.13;101922.56;5025969;28;20045;-70
2022/07/16 04:00:26;;;;;;;0.70;0.60;;;;;;;26.49;41.99;101932.34;5025784;28;20037;-70
2022/07/16 04:02:51;;;;;;;0.80;0.60;;;;;;;26.49;42.01;101936.81;5025474;28;20037;-70
2022/07/16 04:05:16;;;;;;;0.70;0.60;;;;;;;26.47;42.31;101934.19;5025983;28;21242;-70
2022/07/16 04:07:42;;;;;;;1.42;0.60;;;;;;;26.47;42.05;101938.69;5025951;28;20040;-70
2022/07/16 04:10:07;;;;;;;0.85;0.70;;;;;;;26.49;41.99;101943.03;5026280;28;20026;-70
2022/07/16 04:12:33;;;;;;;0.60;0.60;;;;;;;26.50;42.00;101943.91;5025460;28;20033;-71
2022/07/16 04:14:59;;;;;;;0.75;0.60;;;;;;;26.47;42.09;101944.03;5025818;28;20033;-70
2022/07/16 04:17:27;;;;;;;0.70;0.60;;;;;;;26.45;42.18;101960.13;5025575;28;20033;-70
2022/07/16 04:19:52;;;;;;;0.52;0.52;;;;;;;26.46;41.97;101953.00;5026018;28;20037;-70
2022/07/16 04:22:18;;;;;;;0.70;0.57;;;;;;;26.48;42.09;101956.47;5012284;28;20042;-70
2022/07/16 04:24:43;;;;;;;1.35;0.60;;;;;;;26.45;42.05;101956.59;5029492;28;20029;-70
2022/07/16 04:27:08;;;;;;;1.05;0.70;;;;;;;26.45;41.98;101965.50;5029308;28;20659;-70
2022/07/16 04:29:34;;;;;;;0.68;0.60;;;;;;;26.46;41.88;101967.25;5028875;28;20379;-71
2022/07/16 04:31:59;;;;;;;0.60;0.60;;;;;;;26.45;42.11;101967.28;5029395;28;20038;-70
2022/07/16 04:34:24;;;;;;;1.17;0.70;;;;;;;26.46;42.12;101969.91;5027752;28;20491;-70
2022/07/16 04:36:50;;;;;;;0.60;0.60;;;;;;;26.43;42.19;101966.44;5029185;28;20045;-70
2022/07/16 04:39:15;;;;;;;1.00;0.63;;;;;;;26.44;42.01;101970.88;5029256;28;20030;-70
2022/07/16 04:41:40;;;;;;;0.63;0.60;;;;;;;26.45;42.12;101969.97;5028892;28;20029;-70
2022/07/16 04:44:06;;;;;;;1.38;0.60;;;;;;;26.46;42.00;101969.91;5029308;28;20037;-70
2022/07/16 04:46:31;;;;;;;0.77;0.60;;;;;;;26.47;41.90;101976.13;5028938;28;20152;-70
2022/07/16 04:48:57;;;;;;;0.70;0.60;;;;;;;26.46;42.11;101975.25;5029200;28;21021;-70
2022/07/16 04:51:22;;;;;;;0.90;0.60;;;;;;;26.45;42.03;101980.66;5027222;28;20040;-70
2022/07/16 04:53:47;;;;;;;0.75;0.60;;;;;;;26.41;41.96;101979.88;5028998;28;20056;-70
2022/07/16 04:56:13;;;;;;;1.10;0.70;;;;;;;26.41;42.17;101985.22;5029211;28;20033;-70
2022/07/16 04:58:38;;;;;;;0.85;0.60;;;;;;;26.41;42.11;101993.25;5028344;28;20034;-70
2022/07/16 05:01:04;;;;;;;1.10;0.70;;;;;;;26.39;42.25;101992.44;5028580;28;20483;-71
2022/07/16 05:03:29;;;;;;;0.70;0.60;;;;;;;26.39;42.17;101995.13;5028319;28;20032;-70
2022/07/16 05:05:54;;;;;;;0.93;0.60;;;;;;;26.41;42.18;101995.06;5028734;28;20132;-70
2022/07/16 05:08:20;;;;;;;1.83;0.70;;;;;;;26.43;42.07;101998.53;5028714;28;20048;-70
2022/07/16 05:10:45;;;;;;;0.60;0.60;;;;;;;26.44;42.13;102006.53;5027616;28;20034;-70
2022/07/16 05:13:10;;;;;;;1.13;0.63;;;;;;;26.47;41.92;102005.56;5028375;28;20061;-70
2022/07/16 05:15:37;;;;;;;1.38;0.70;;;;;;;26.47;41.97;102008.22;5027798;28;20037;-70
2022/07/16 05:18:03;;;;;;;1.25;0.70;;;;;;;26.48;41.95;102009.94;5026832;28;20025;-70
2022/07/16 05:20:29;;;;;;;0.88;0.60;;;;;;;26.49;42.02;102017.06;5028399;28;20025;-70
2022/07/16 05:22:55;;;;;;;1.05;0.70;;;;;;;26.45;42.07;102018.97;5028572;28;20678;-70
2022/07/16 05:25:20;;;;;;;0.82;0.70;;;;;;;26.48;41.77;102028.66;5028169;28;20476;-70
2022/07/16 05:27:46;;;;;;;0.63;0.60;;;;;;;26.44;42.01;102024.38;5026999;28;20035;-70
2022/07/16 05:30:12;;;;;;;0.70;0.60;;;;;;;26.44;42.04;102027.91;5027322;28;20375;-70
2022/07/16 05:32:38;;;;;;;1.02;0.70;;;;;;;26.44;42.03;102032.38;5027753;28;20041;-70
2022/07/16 05:35:04;;;;;;;1.13;0.70;;;;;;;26.41;42.06;102038.69;5027699;28;20037;-70
2022/07/16 05:37:30;;;;;;;0.68;0.60;;;;;;;26.45;42.05;102040.38;5027824;28;20041;-70
2022/07/16 05:39:55;;;;;;;1.30;0.70;;;;;;;26.49;42.13;102041.13;5027104;28;20123;-71
2022/07/16 05:42:20;;;;;;;1.05;0.60;;;;;;;26.50;41.85;102034.84;5028568;28;20484;-70
2022/07/16 05:44:46;;;;;;;1.05;0.70;;;;;;;26.54;41.76;102047.19;5027098;28;20403;-70
2022/07/16 05:47:11;;;;;;;0.93;0.60;;;;;;;26.56;41.72;102040.88;5028267;28;20029;-70
2022/07/16 05:49:37;;;;;;;0.70;0.60;;;;;;;26.58;41.74;102040.81;5027725;28;20037;-70
2022/07/16 05:52:02;;;;;;;0.82;0.60;;;;;;;26.58;41.60;102043.50;5027738;28;20037;-70
2022/07/16 05:54:27;;;;;;;1.95;0.63;;;;;;;26.60;41.71;102047.84;4996679;28;20091;-70
2022/07/16 05:56:53;;;;;;;0.70;0.60;;;;;;;26.78;41.24;102046.31;5028383;28;20052;-70
2022/07/16 05:59:18;;;;;;;1.08;0.70;;;;;;;26.95;40.88;102053.81;5025989;28;20025;-70
2022/07/16 06:01:43;;;;;;;1.70;0.80;;;;;;;27.00;40.84;102046.47;5027856;28;20030;-70
2022/07/16 06:04:09;;;;;;;1.10;0.60;;;;;;;27.08;40.68;102049.72;5026979;28;20096;-70
2022/07/16 06:06:34;;;;;;;0.90;0.60;;;;;;;27.19;40.54;102063.63;5027830;28;20033;-70
2022/07/16 06:09:00;;;;;;;1.60;0.68;;;;;;;27.22;40.44;102062.59;5027198;28;20029;-70
2022/07/16 06:11:25;;;;;;;1.67;0.60;;;;;;;27.35;40.16;102070.13;5027525;28;20164;-70
2022/07/16 06:13:50;;;;;;;0.98;0.60;;;;;;;27.37;40.16;102064.72;5027491;28;20113;-70
2022/07/16 06:16:16;;;;;;;0.90;0.60;;;;;;;27.43;40.05;102072.53;5026091;28;20515;-70
2022/07/16 06:18:44;;;;;;;1.10;0.60;;;;;;;27.49;39.53;102072.31;5027483;28;20108;-70
2022/07/16 06:21:09;;;;;;;1.02;0.70;;;;;;;27.55;39.73;102076.59;5026854;28;20083;-70
2022/07/16 06:23:35;;;;;;;1.08;0.73;;;;;;;27.55;39.59;102084.63;5026764;28;20033;-70
2022/07/16 06:26:00;;;;;;;1.45;0.70;;;;;;;27.58;39.69;102079.13;5026645;28;20411;-70
2022/07/16 06:28:26;;;;;;;0.82;0.70;;;;;;;27.59;39.49;102083.56;5027520;28;20036;-70
2022/07/16 06:30:51;;;;;;;1.23;0.70;;;;;;;27.56;39.46;102091.72;5026865;28;20036;-70
2022/07/16 06:33:16;;;;;;;1.13;0.60;;;;;;;27.52;39.86;102090.06;5026566;28;20032;-70
2022/07/16 06:35:42;;;;;;;1.00;0.70;;;;;;;27.51;39.81;102093.69;5025607;28;20036;-71
2022/07/16 06:38:07;;;;;;;0.75;0.50;;;;;;;27.50;39.67;102091.94;5027126;28;20026;-71
2022/07/16 06:40:33;;;;;;;0.75;0.60;;;;;;;27.49;39.98;102100.88;5026614;28;20033;-70
2022/07/16 06:42:58;;;;;;;0.90;0.60;;;;;;;27.50;39.80;102097.28;5026958;28;20033;-70
2022/07/16 06:45:23;;;;;;;0.90;0.60;;;;;;;27.41;39.94;102101.16;5025102;28;20093;-70
2022/07/16 06:47:49;;;;;;;0.90;0.70;;;;;;;27.34;40.25;102105.88;5026757;28;20061;-70
2022/07/16 06:50:15;;;;;;;1.00;0.70;;;;;;;27.29;40.20;102109.66;5025562;28;20075;-70
2022/07/16 06:52:40;;;;;;;1.67;0.68;;;;;;;27.35;40.13;102112.09;5026012;28;20050;-70
2022/07/16 06:55:06;;;;;;;1.17;0.63;;;;;;;27.32;40.18;102110.44;5026537;28;20033;-70
2022/07/16 06:57:32;;;;;;;1.08;0.70;;;;;;;27.39;40.09;102103.91;5026669;28;20045;-71
2022/07/16 06:59:58;;;;;;;1.23;0.70;;;;;;;27.37;40.11;102113.81;5027178;28;20033;-71
2022/07/16 07:02:23;;;;;;;1.88;0.60;;;;;;;27.34;40.19;102118.38;5026634;28;20061;-71
2022/07/16 07:04:49;;;;;;;0.88;0.70;;;;;;;27.33;39.93;102119.31;5026812;28;20032;-71
2022/07/16 07:07:14;;;;;;;1.27;0.70;;;;;;;27.32;39.91;102123.81;5026054;28;20124;-71
2022/07/16 07:09:40;;;;;;;1.02;0.68;;;;;;;27.29;39.96;102131.97;5025277;28;20457;-70
2022/07/16 07:12:06;;;;;;;1.10;0.70;;;;;;;27.29;40.10;102137.31;5026669;28;20036;-70
2022/07/16 07:14:31;;;;;;;1.30;0.60;;;;;;;27.28;40.12;102137.34;5026278;28;20105;-70
2022/07/16 07:16:57;;;;;;;1.33;0.60;;;;;;;27.28;39.85;102143.59;5026343;28;20064;-70
2022/07/16 07:19:22;;;;;;;1.75;0.80;;;;;;;27.29;39.97;102150.69;5026591;28;20059;-70
2022/07/16 07:21:47;;;;;;;1.55;0.80;;;;;;;27.30;40.01;102152.47;5025336;28;20057;-70
2022/07/16 07:24:13;;;;;;;1.23;0.70;;;;;;;27.31;40.14;102151.53;5026340;28;20026;-70
2022/07/16 07:26:38;;;;;;;1.30;0.70;;;;;;;27.33;39.74;102151.44;5026627;28;20064;-70
2022/07/16 07:29:03;;;;;;;0.93;0.60;;;;;;;27.35;39.96;102158.50;5025795;28;20041;-70
2022/07/16 07:31:29;;;;;;;0.80;0.60;;;;;;;27.36;39.98;102156.72;5025151;28;20029;-71
2022/07/16 07:33:54;;;;;;;0.98;0.70;;;;;;;27.36;39.67;102148.69;5026215;28;20025;-70
2022/07/16 07:36:19;;;;;;;1.00;0.60;;;;;;;27.34;39.68;102158.56;5026168;28;20033;-71
2022/07/16 07:38:45;;;;;;;1.77;0.70;;;;;;;27.32;39.68;102165.78;5025944;28;20083;-70
2022/07/16 07:41:10;;;;;;;1.80;0.70;;;;;;;27.31;39.68;102172.06;5025973;28;20121;-70
2022/07/16 07:43:36;;;;;;;1.08;0.63;;;;;;;27.29;39.38;102172.13;5025618;28;20049;-71
2022/07/16 07:46:01;;;;;;;1.15;0.60;;;;;;;27.29;39.45;102180.16;5026121;28;20025;-71
2022/07/16 07:48:27;;;;;;;1.52;0.68;;;;;;;27.31;39.88;102172.06;5026111;28;20037;-71
2022/07/16 07:50:52;;;;;;;2.53;0.80;;;;;;;27.32;39.56;102188.09;5026348;28;20049;-70
2022/07/16 07:53:17;;;;;;;1.27;0.60;;;;;;;27.33;39.73;102184.47;5025373;28;20053;-70
2022/07/16 07:55:44;;;;;;;1.02;0.60;;;;;;;27.33;39.68;102183.59;5029477;28;20079;-71
2022/07/16 07:58:09;;;;;;;1.25;0.68;;;;;;;27.32;39.43;102189.91;5030244;28;20048;-70
2022/07/16 08:00:35;;;;;;;1.17;0.57;;;;;;;27.30;39.75;102195.31;5030208;28;20045;-70
2022/07/16 08:03:00;;;;;;;1.08;0.60;;;;;;;27.30;39.60;102189.06;5029749;28;20033;-70
2022/07/16 08:05:26;;;;;;;2.08;0.70;;;;;;;27.30;39.65;102191.75;5012556;28;20035;-70
2022/07/16 08:07:51;;;;;;;1.30;0.70;;;;;;;27.29;39.45;102195.34;5029471;28;20112;-70
2022/07/16 08:10:17;;;;;;;1.63;0.52;;;;;;;27.27;39.25;102208.78;5030131;28;20029;-70
2022/07/16 08:12:43;;;;;;;1.33;0.70;;;;;;;27.27;39.13;102198.06;5029781;28;20036;-70
2022/07/16 08:15:10;;;;;;;1.27;0.73;;;;;;;27.28;39.34;102207.84;5028887;28;20041;-70
2022/07/16 08:17:35;;;;;;;0.77;0.60;;;;;;;27.30;39.38;102197.09;5030046;28;20060;-70
2022/07/16 08:20:02;;;;;;;1.50;0.70;;;;;;;27.31;39.12;102212.25;5029035;28;20068;-70
2022/07/16 08:22:28;;;;;;;1.40;0.63;;;;;;;27.31;39.12;102213.13;5029685;28;20045;-70
2022/07/16 08:27:37;;;;;;;1.15;0.70;;;;;;;27.34;39.29;102212.13;5029588;28;20052;-71
2022/07/16 08:30:03;;;;;;;1.30;0.80;;;;;;;27.34;38.85;102212.13;5029652;28;20033;-70
2022/07/16 08:32:28;;;;;;;1.40;0.70;;;;;;;27.37;39.21;102212.91;5030022;28;20037;-71
2022/07/16 08:34:54;;;;;;;1.45;0.65;;;;;;;27.37;39.05;102210.22;5029126;28;20072;-71
2022/07/16 08:37:35;;;;;;;0.95;0.60;;;;;;;27.37;39.29;102210.22;5028684;28;20029;-71
2022/07/16 08:40:03;;;;;;;1.25;0.68;;;;;;;27.37;39.28;102218.25;5029367;28;20167;-71
2022/07/16 08:42:31;;;;;;;1.38;0.60;;;;;;;27.40;39.04;102223.50;5029349;28;20025;-71
2022/07/16 08:44:58;;;;;;;0.75;0.60;;;;;;;27.43;39.43;102222.53;5028503;28;20036;-71
2022/07/16 08:47:23;;;;;;;1.45;0.70;;;;;;;27.44;39.26;102222.47;5029550;28;20053;-71
2022/07/16 08:49:49;;;;;;;2.35;0.70;;;;;;;27.49;39.01;102226.78;5028391;28;20140;-71
2022/07/16 08:52:15;;;;;;;1.95;0.70;;;;;;;27.49;39.26;102232.16;5028162;28;20037;-71
2022/07/16 08:54:42;;;;;;;1.30;0.60;;;;;;;27.52;39.15;102238.28;5028610;28;20037;-71
2022/07/16 08:57:08;;;;;;;1.08;0.60;;;;;;;27.53;39.33;102240.03;5029208;28;20025;-71
2022/07/16 08:59:35;;;;;;;1.27;0.57;;;;;;;27.53;39.18;102240.03;5028522;28;20033;-71
2022/07/16 09:02:00;;;;;;;1.10;0.57;;;;;;;27.51;39.28;102241.88;5028996;28;20052;-72
2022/07/16 09:04:26;;;;;;;0.82;0.55;;;;;;;27.56;39.00;102229.22;5027773;28;20468;-71
2022/07/16 09:06:51;;;;;;;1.27;0.60;;;;;;;27.54;39.34;102236.44;5028569;28;20467;-71
2022/07/16 09:09:16;;;;;;;1.05;0.50;;;;;;;27.52;39.52;102249.00;5028015;28;20040;-71
2022/07/16 09:11:43;;;;;;;1.10;0.60;;;;;;;27.54;39.39;102241.78;5028735;28;20028;-71
2022/07/16 09:14:14;;;;;;;1.98;0.63;;;;;;;27.54;39.17;102244.47;5028341;28;20033;-71
2022/07/16 09:16:46;;;;;;;1.23;0.70;;;;;;;27.55;39.20;102248.03;5024824;28;20129;-71
2022/07/16 09:19:19;;;;;;;1.08;0.63;;;;;;;27.57;38.90;102255.06;5028799;28;20487;-71
2022/07/16 09:22:03;;;;;;;;;;;;;;;27.58;39.06;102264.84;5028565;28;20384;-69
2022/07/16 09:24:40;;;;;;;1.23;0.70;;;;;;;27.60;38.93;102256.78;5028556;28;19966;-71
2022/07/16 09:27:10;;;;;;;1.63;0.60;;;;;;;27.55;39.10;102274.81;5028357;28;20021;-71
2022/07/16 09:29:47;;;;;;;0.77;0.50;;;;;;;27.52;39.14;102275.78;5026894;28;20029;-71
2022/07/16 09:32:39;;;;;;;1.58;0.57;;;;;;;27.54;39.28;102278.41;5028140;28;20061;-71
2022/07/16 09:35:06;;;;;;;1.38;0.70;;;;;;;27.53;38.90;102288.25;5028538;28;20459;-71
2022/07/16 09:38:10;;;;;;;0.93;0.55;;;;;;;27.51;39.10;102289.22;5027732;28;20145;-71
2022/07/16 09:40:46;;;;;;;1.15;0.60;;;;;;;27.54;39.04;102291.81;5018666;28;20033;-71
2022/07/16 09:43:11;;;;;;;1.65;0.70;;;;;;;27.54;38.86;102294.50;4998831;28;20124;-71
2022/07/16 09:45:39;;;;;;;1.17;0.60;;;;;;;27.55;39.04;102296.25;5019394;28;20124;-71
2022/07/16 09:48:23;;;;;;;1.05;0.55;;;;;;;27.52;39.14;102296.34;5025924;28;20121;-71
2022/07/16 09:50:51;;;;;;;1.00;0.50;;;;;;;27.52;39.08;102293.66;5027272;28;20657;-71
2022/07/16 09:53:22;;;;;;;1.20;0.70;;;;;;;27.54;38.83;102297.19;5027001;28;20133;-71
2022/07/16 09:56:02;;;;;;;1.40;0.60;;;;;;;27.53;39.10;102298.97;5027381;28;20025;-71
2022/07/16 09:58:28;;;;;;;1.20;0.70;;;;;;;27.57;38.81;102307.81;5027206;28;20511;-71
2022/07/16 10:00:54;;;;;;;1.33;0.60;;;;;;;27.54;39.00;102314.13;5027158;28;20040;-71
2022/07/16 10:03:20;;;;;;;1.33;0.60;;;;;;;27.55;39.10;102315.88;5026494;28;20041;-71
2022/07/16 10:05:45;;;;;;;1.90;0.60;;;;;;;27.53;38.80;102315.06;5026381;28;20037;-71
2022/07/16 10:08:11;;;;;;;1.23;0.60;;;;;;;27.52;38.79;102315.97;5026809;28;20025;-71
2022/07/16 10:10:36;;;;;;;0.90;0.60;;;;;;;27.54;38.72;102319.50;5027367;28;20025;-71
2022/07/16 10:13:02;;;;;;;1.33;0.65;;;;;;;27.56;38.67;102309.59;5026864;28;20025;-71
2022/07/16 10:15:28;;;;;;;0.98;0.60;;;;;;;27.54;38.63;102315.94;5027252;28;20913;-71
2022/07/16 10:17:53;;;;;;;1.20;0.60;;;;;;;27.57;38.64;102311.31;5025951;28;20041;-71
2022/07/16 10:20:19;;;;;;;1.33;0.60;;;;;;;27.58;38.65;102314.88;5024941;28;20018;-72
2022/07/16 10:22:49;;;;;;;1.92;0.80;;;;;;;27.55;38.69;102317.69;5026919;28;20127;-71
2022/07/16 10:25:19;;;;;;;1.38;0.80;;;;;;;27.58;38.57;102322.91;5026756;28;20800;-71
2022/07/16 10:27:45;;;;;;;1.40;0.70;;;;;;;27.58;38.57;102321.13;5026414;28;20061;-72
2022/07/16 10:30:22;;;;;;;1.30;0.60;;;;;;;27.59;38.68;102317.50;5026501;28;20060;-71
2022/07/16 10:33:00;;;;;;;0.82;0.60;;;;;;;27.59;38.80;102324.69;5026962;28;20488;-72
2022/07/16 10:35:39;;;;;;;1.40;0.55;;;;;;;27.61;38.62;102326.38;5026453;28;20828;-72
2022/07/16 10:38:08;;;;;;;1.35;0.70;;;;;;;27.63;38.92;102319.16;5026514;28;20472;-72
2022/07/16 10:40:36;;;;;;;0.77;0.50;;;;;;;27.63;38.61;102320.97;5026615;28;20472;-72
2022/07/16 10:43:21;;;;;;;1.73;0.70;;;;;;;27.62;38.69;102330.81;5026416;28;20037;-71
2022/07/16 10:45:54;;;;;;;1.48;0.63;;;;;;;27.64;38.88;102345.03;5026740;28;20037;-71
2022/07/16 10:48:22;;;;;;;1.58;0.80;;;;;;;27.62;38.61;102341.53;5026154;28;20096;-71
2022/07/16 10:51:22;;;;;;;2.00;0.63;;;;;;;27.60;38.56;102340.72;5025844;28;20033;-72
2022/07/16 10:53:56;;;;;;;1.27;0.60;;;;;;;27.63;38.60;102335.22;5025028;28;20041;-71
2022/07/16 10:56:50;;;;;;;1.45;0.60;;;;;;;27.64;38.81;102341.47;5025730;28;20045;-71
2022/07/16 10:59:17;;;;;;;2.28;0.70;;;;;;;27.63;38.56;102342.41;5023802;28;20033;-71
2022/07/16 11:01:46;;;;;;;1.50;0.80;;;;;;;27.65;38.55;102340.53;5025883;28;20028;-71
2022/07/16 11:04:12;;;;;;;1.02;0.60;;;;;;;27.64;38.41;102350.38;5024586;28;20411;-71
2022/07/16 11:06:39;;;;;;;1.73;0.70;;;;;;;27.64;38.53;102334.31;5025574;28;20122;-72
2022/07/16 11:09:06;;;;;;;0.90;0.60;;;;;;;27.65;38.34;102337.88;5024807;28;20399;-72
2022/07/16 11:11:37;;;;;;;1.08;0.60;;;;;;;27.66;38.46;102336.94;5025664;28;20034;-72
2022/07/16 11:14:04;;;;;;;1.60;0.60;;;;;;;27.64;38.58;102333.44;5025157;28;20120;-71
2022/07/16 11:16:30;;;;;;;1.45;0.73;;;;;;;27.61;38.44;102342.47;5026040;28;20075;-71
2022/07/16 11:18:58;;;;;;;1.63;0.60;;;;;;;27.61;38.81;102341.59;5025765;28;20549;-71
2022/07/16 11:21:25;;;;;;;1.08;0.70;;;;;;;27.61;38.56;102345.16;5025096;28;20056;-71
2022/07/16 11:23:53;;;;;;;1.13;0.60;;;;;;;27.63;38.64;102350.47;5025815;28;20553;-71
2022/07/16 11:26:19;;;;;;;1.95;0.70;;;;;;;27.66;38.59;102358.38;5025188;28;20426;-72
2022/07/16 11:29:01;;;;;;;2.95;0.90;;;;;;;27.63;38.45;102359.34;5025607;28;20029;-67
2022/07/16 11:31:36;;;;;;;2.42;0.65;;;;;;;27.69;38.17;102352.94;5026074;28;20511;-65
2022/07/16 11:34:06;;;;;;;2.88;0.85;;;;;;;27.71;38.47;102357.28;5025878;28;20038;-66
2022/07/16 11:36:35;;;;;;;3.00;0.70;;;;;;;27.69;38.36;102359.13;5027703;28;20126;-70